sensor_id;sensor_type;location;lat;lon;timestamp;pressure;altitude;pressure_sealevel;temperature;humidity
69127;BME280;56688;50.234;19.292;2023-04-09T00:01:36;99163.63;;;6.15;79.13
69127;BME280;56688;50.234;19.292;2023-04-09T00:04:03;99165.63;;;6.10;78.86
69127;BME280;56688;50.234;19.292;2023-04-09T00:06:30;99170.79;;;6.06;78.78
69127;BME280;56688;50.234;19.292;2023-04-09T00:08:57;99168.70;;;6.01;78.48
69127;BME280;56688;50.234;19.292;2023-04-09T00:11:24;99171.46;;;5.97;79.01
69127;BME280;56688;50.234;19.292;2023-04-09T00:13:51;99174.61;;;5.92;78.71
69127;BME280;56688;50.234;19.292;2023-04-09T00:16:18;99172.98;;;5.91;78.58
69127;BME280;56688;50.234;19.292;2023-04-09T00:18:45;99172.72;;;5.89;78.61
69127;BME280;56688;50.234;19.292;2023-04-09T00:21:12;99175.36;;;5.87;78.41
69127;BME280;56688;50.234;19.292;2023-04-09T00:23:38;99177.39;;;5.85;77.79
69127;BME280;56688;50.234;19.292;2023-04-09T00:26:05;99175.77;;;5.81;77.82
69127;BME280;56688;50.234;19.292;2023-04-09T00:28:32;99172.81;;;5.75;77.75
69127;BME280;56688;50.234;19.292;2023-04-09T00:30:59;99178.11;;;5.67;77.62
69127;BME280;56688;50.234;19.292;2023-04-09T00:33:26;99177.73;;;5.60;77.62
69127;BME280;56688;50.234;19.292;2023-04-09T00:35:53;99182.04;;;5.53;77.53
69127;BME280;56688;50.234;19.292;2023-04-09T00:38:20;99179.63;;;5.49;77.42
69127;BME280;56688;50.234;19.292;2023-04-09T00:40:49;99180.35;;;5.45;77.28
69127;BME280;56688;50.234;19.292;2023-04-09T00:43:16;99180.71;;;5.41;77.13
69127;BME280;56688;50.234;19.292;2023-04-09T00:45:44;99176.80;;;5.35;76.77
69127;BME280;56688;50.234;19.292;2023-04-09T00:48:12;99176.23;;;5.28;76.28
69127;BME280;56688;50.234;19.292;2023-04-09T00:50:39;99171.55;;;5.21;76.72
69127;BME280;56688;50.234;19.292;2023-04-09T00:53:08;99175.14;;;5.12;76.53
69127;BME280;56688;50.234;19.292;2023-04-09T00:55:38;99171.72;;;5.03;76.12
69127;BME280;56688;50.234;19.292;2023-04-09T00:58:06;99171.86;;;4.94;75.91
69127;BME280;56688;50.234;19.292;2023-04-09T01:00:33;99174.10;;;4.85;76.28
69127;BME280;56688;50.234;19.292;2023-04-09T01:03:00;99175.09;;;4.77;76.74
69127;BME280;56688;50.234;19.292;2023-04-09T01:05:35;99181.70;;;4.72;77.53
69127;BME280;56688;50.234;19.292;2023-04-09T01:08:27;99180.48;;;4.70;78.06
69127;BME280;56688;50.234;19.292;2023-04-09T01:11:12;99183.98;;;4.66;78.24
69127;BME280;56688;50.234;19.292;2023-04-09T01:13:48;99183.43;;;4.63;78.50
69127;BME280;56688;50.234;19.292;2023-04-09T01:16:20;99184.10;;;4.61;78.98
69127;BME280;56688;50.234;19.292;2023-04-09T01:18:52;99183.73;;;4.63;79.32
69127;BME280;56688;50.234;19.292;2023-04-09T01:21:25;99181.96;;;4.67;79.48
69127;BME280;56688;50.234;19.292;2023-04-09T01:29:54;99183.31;;;4.78;79.81
69127;BME280;56688;50.234;19.292;2023-04-09T01:32:24;99183.89;;;4.76;79.69
69127;BME280;56688;50.234;19.292;2023-04-09T01:34:52;99186.27;;;4.74;79.76
69127;BME280;56688;50.234;19.292;2023-04-09T01:37:19;99190.17;;;4.74;79.29
69127;BME280;56688;50.234;19.292;2023-04-09T01:39:47;99187.55;;;4.72;79.08
69127;BME280;56688;50.234;19.292;2023-04-09T01:42:14;99192.60;;;4.69;78.99
69127;BME280;56688;50.234;19.292;2023-04-09T01:44:42;99191.35;;;4.67;79.31
69127;BME280;56688;50.234;19.292;2023-04-09T01:47:26;99192.17;;;4.63;79.79
69127;BME280;56688;50.234;19.292;2023-04-09T01:49:53;99193.68;;;4.63;79.90
69127;BME280;56688;50.234;19.292;2023-04-09T01:52:20;99188.40;;;4.60;80.35
69127;BME280;56688;50.234;19.292;2023-04-09T01:54:47;99186.63;;;4.58;80.55
69127;BME280;56688;50.234;19.292;2023-04-09T01:57:15;99191.05;;;4.60;80.12
69127;BME280;56688;50.234;19.292;2023-04-09T01:59:42;99187.33;;;4.61;80.21
69127;BME280;56688;50.234;19.292;2023-04-09T02:02:11;99186.66;;;4.62;80.34
69127;BME280;56688;50.234;19.292;2023-04-09T02:04:46;99185.83;;;4.64;80.42
69127;BME280;56688;50.234;19.292;2023-04-09T02:07:27;99185.63;;;4.66;80.38
69127;BME280;56688;50.234;19.292;2023-04-09T02:09:58;99187.80;;;4.69;80.09
69127;BME280;56688;50.234;19.292;2023-04-09T02:12:28;99183.23;;;4.69;79.84
69127;BME280;56688;50.234;19.292;2023-04-09T02:14:57;99184.38;;;4.66;79.47
69127;BME280;56688;50.234;19.292;2023-04-09T02:17:26;99185.20;;;4.65;79.36
69127;BME280;56688;50.234;19.292;2023-04-09T02:19:53;99187.61;;;4.61;79.07
69127;BME280;56688;50.234;19.292;2023-04-09T02:22:20;99189.92;;;4.61;79.20
69127;BME280;56688;50.234;19.292;2023-04-09T02:24:47;99193.88;;;4.62;79.25
69127;BME280;56688;50.234;19.292;2023-04-09T02:27:14;99191.67;;;4.63;79.29
69127;BME280;56688;50.234;19.292;2023-04-09T02:29:41;99191.04;;;4.64;79.48
69127;BME280;56688;50.234;19.292;2023-04-09T02:32:08;99186.71;;;4.65;79.56
69127;BME280;56688;50.234;19.292;2023-04-09T02:34:35;99190.78;;;4.65;79.51
69127;BME280;56688;50.234;19.292;2023-04-09T02:37:02;99188.66;;;4.65;79.17
69127;BME280;56688;50.234;19.292;2023-04-09T02:39:29;99188.64;;;4.66;78.93
69127;BME280;56688;50.234;19.292;2023-04-09T02:41:56;99185.71;;;4.67;79.28
69127;BME280;56688;50.234;19.292;2023-04-09T02:44:25;99190.33;;;4.70;79.60
69127;BME280;56688;50.234;19.292;2023-04-09T02:46:52;99189.16;;;4.73;79.19
69127;BME280;56688;50.234;19.292;2023-04-09T02:49:19;99191.77;;;4.74;79.21
69127;BME280;56688;50.234;19.292;2023-04-09T02:51:47;99191.33;;;4.76;79.02
69127;BME280;56688;50.234;19.292;2023-04-09T02:54:13;99195.02;;;4.76;78.91
69127;BME280;56688;50.234;19.292;2023-04-09T02:56:40;99193.66;;;4.75;79.42
69127;BME280;56688;50.234;19.292;2023-04-09T02:59:07;99191.10;;;4.76;79.39
69127;BME280;56688;50.234;19.292;2023-04-09T03:01:34;99183.90;;;4.78;79.33
69127;BME280;56688;50.234;19.292;2023-04-09T03:04:02;99189.64;;;4.80;79.65
69127;BME280;56688;50.234;19.292;2023-04-09T03:06:28;99183.91;;;4.83;79.77
69127;BME280;56688;50.234;19.292;2023-04-09T03:08:55;99181.74;;;4.84;79.92
69127;BME280;56688;50.234;19.292;2023-04-09T03:11:22;99184.23;;;4.88;79.97
69127;BME280;56688;50.234;19.292;2023-04-09T03:13:49;99182.18;;;4.89;79.83
69127;BME280;56688;50.234;19.292;2023-04-09T03:16:16;99182.24;;;4.88;79.93
69127;BME280;56688;50.234;19.292;2023-04-09T03:18:42;99182.14;;;4.87;79.68
69127;BME280;56688;50.234;19.292;2023-04-09T03:21:09;99186.14;;;4.88;79.68
69127;BME280;56688;50.234;19.292;2023-04-09T03:23:44;99187.42;;;4.89;79.77
69127;BME280;56688;50.234;19.292;2023-04-09T03:26:11;99187.35;;;4.92;79.82
69127;BME280;56688;50.234;19.292;2023-04-09T03:28:44;99189.43;;;4.93;79.59
69127;BME280;56688;50.234;19.292;2023-04-09T03:31:10;99188.70;;;4.93;79.84
69127;BME280;56688;50.234;19.292;2023-04-09T03:33:40;99186.86;;;4.96;79.92
69127;BME280;56688;50.234;19.292;2023-04-09T03:36:08;99184.97;;;4.97;79.77
69127;BME280;56688;50.234;19.292;2023-04-09T03:38:44;99187.48;;;4.96;79.84
69127;BME280;56688;50.234;19.292;2023-04-09T03:41:21;99187.56;;;4.96;79.51
69127;BME280;56688;50.234;19.292;2023-04-09T03:43:48;99186.25;;;4.96;79.50
69127;BME280;56688;50.234;19.292;2023-04-09T03:46:17;99190.33;;;4.98;79.71
69127;BME280;56688;50.234;19.292;2023-04-09T03:48:45;99194.25;;;5.00;79.48
69127;BME280;56688;50.234;19.292;2023-04-09T03:51:13;99195.05;;;4.99;79.22
69127;BME280;56688;50.234;19.292;2023-04-09T03:53:45;99196.89;;;4.96;79.15
69127;BME280;56688;50.234;19.292;2023-04-09T03:56:12;99195.31;;;4.92;79.35
69127;BME280;56688;50.234;19.292;2023-04-09T03:58:40;99191.59;;;4.90;79.52
69127;BME280;56688;50.234;19.292;2023-04-09T04:01:07;99188.30;;;4.88;79.90
69127;BME280;56688;50.234;19.292;2023-04-09T04:03:37;99186.60;;;4.87;79.96
69127;BME280;56688;50.234;19.292;2023-04-09T04:06:09;99188.52;;;4.85;79.86
69127;BME280;56688;50.234;19.292;2023-04-09T04:08:49;99195.29;;;4.86;79.96
69127;BME280;56688;50.234;19.292;2023-04-09T04:11:18;99200.78;;;4.86;79.96
69127;BME280;56688;50.234;19.292;2023-04-09T04:13:45;99203.23;;;4.85;79.97
69127;BME280;56688;50.234;19.292;2023-04-09T04:16:12;99201.33;;;4.84;80.03
69127;BME280;56688;50.234;19.292;2023-04-09T04:18:39;99196.08;;;4.86;80.30
69127;BME280;56688;50.234;19.292;2023-04-09T04:21:12;99196.06;;;4.84;80.29
69127;BME280;56688;50.234;19.292;2023-04-09T04:23:42;99195.69;;;4.80;80.76
69127;BME280;56688;50.234;19.292;2023-04-09T04:26:15;99197.77;;;4.78;80.44
69127;BME280;56688;50.234;19.292;2023-04-09T04:28:42;99197.61;;;4.78;80.85
69127;BME280;56688;50.234;19.292;2023-04-09T04:31:13;99200.23;;;4.79;81.01
69127;BME280;56688;50.234;19.292;2023-04-09T04:33:40;99205.04;;;4.82;81.31
69127;BME280;56688;50.234;19.292;2023-04-09T04:36:12;99202.65;;;4.89;81.32
69127;BME280;56688;50.234;19.292;2023-04-09T04:38:43;99201.45;;;4.94;81.64
69127;BME280;56688;50.234;19.292;2023-04-09T04:41:17;99204.89;;;5.01;81.84
69127;BME280;56688;50.234;19.292;2023-04-09T04:43:50;99207.00;;;5.08;81.68
69127;BME280;56688;50.234;19.292;2023-04-09T04:46:20;99207.54;;;5.14;81.56
69127;BME280;56688;50.234;19.292;2023-04-09T04:48:47;99212.02;;;5.21;81.53
69127;BME280;56688;50.234;19.292;2023-04-09T04:51:14;99210.44;;;5.28;81.50
69127;BME280;56688;50.234;19.292;2023-04-09T04:53:46;99216.13;;;5.34;81.67
69127;BME280;56688;50.234;19.292;2023-04-09T04:56:13;99214.68;;;5.38;81.84
69127;BME280;56688;50.234;19.292;2023-04-09T04:58:57;99208.27;;;5.43;81.35
69127;BME280;56688;50.234;19.292;2023-04-09T05:01:24;99210.52;;;5.45;81.38
69127;BME280;56688;50.234;19.292;2023-04-09T05:03:52;99209.73;;;5.50;81.46
69127;BME280;56688;50.234;19.292;2023-04-09T05:06:24;99206.90;;;5.56;81.43
69127;BME280;56688;50.234;19.292;2023-04-09T05:08:54;99203.48;;;5.60;81.28
69127;BME280;56688;50.234;19.292;2023-04-09T05:11:24;99203.92;;;5.65;81.50
69127;BME280;56688;50.234;19.292;2023-04-09T05:13:51;99205.44;;;5.72;81.41
69127;BME280;56688;50.234;19.292;2023-04-09T05:16:19;99209.45;;;5.78;81.24
69127;BME280;56688;50.234;19.292;2023-04-09T05:18:51;99209.58;;;5.85;81.57
69127;BME280;56688;50.234;19.292;2023-04-09T05:21:18;99212.11;;;5.90;81.57
69127;BME280;56688;50.234;19.292;2023-04-09T05:23:46;99214.51;;;5.93;81.53
69127;BME280;56688;50.234;19.292;2023-04-09T05:26:13;99213.71;;;5.98;81.27
69127;BME280;56688;50.234;19.292;2023-04-09T05:28:47;99213.89;;;6.03;81.15
69127;BME280;56688;50.234;19.292;2023-04-09T05:31:16;99212.66;;;6.11;81.05
69127;BME280;56688;50.234;19.292;2023-04-09T05:33:51;99217.02;;;6.23;81.53
69127;BME280;56688;50.234;19.292;2023-04-09T05:36:22;99211.49;;;6.33;81.27
69127;BME280;56688;50.234;19.292;2023-04-09T05:38:50;99217.29;;;6.41;80.79
69127;BME280;56688;50.234;19.292;2023-04-09T05:41:17;99219.17;;;6.45;80.31
69127;BME280;56688;50.234;19.292;2023-04-09T05:43:59;99220.42;;;6.43;79.85
69127;BME280;56688;50.234;19.292;2023-04-09T05:46:27;99222.13;;;6.38;79.90
69127;BME280;56688;50.234;19.292;2023-04-09T05:48:55;99223.77;;;6.35;80.13
69127;BME280;56688;50.234;19.292;2023-04-09T05:51:22;99224.89;;;6.41;80.48
69127;BME280;56688;50.234;19.292;2023-04-09T05:53:49;99226.36;;;6.51;80.48
69127;BME280;56688;50.234;19.292;2023-04-09T05:56:17;99231.56;;;6.60;80.59
69127;BME280;56688;50.234;19.292;2023-04-09T05:58:48;99228.17;;;6.67;80.28
69127;BME280;56688;50.234;19.292;2023-04-09T06:01:16;99229.58;;;6.73;80.64
69127;BME280;56688;50.234;19.292;2023-04-09T06:03:43;99233.29;;;6.83;80.13
69127;BME280;56688;50.234;19.292;2023-04-09T06:06:10;99230.36;;;6.93;80.34
69127;BME280;56688;50.234;19.292;2023-04-09T06:08:36;99228.92;;;7.06;79.76
69127;BME280;56688;50.234;19.292;2023-04-09T06:11:07;99225.79;;;7.22;80.08
69127;BME280;56688;50.234;19.292;2023-04-09T06:13:34;99226.20;;;7.41;80.01
69127;BME280;56688;50.234;19.292;2023-04-09T06:16:09;99230.54;;;7.62;79.63
69127;BME280;56688;50.234;19.292;2023-04-09T06:18:36;99237.42;;;7.80;78.45
69127;BME280;56688;50.234;19.292;2023-04-09T06:21:05;99237.90;;;7.95;77.49
69127;BME280;56688;50.234;19.292;2023-04-09T06:23:33;99236.64;;;8.03;75.99
69127;BME280;56688;50.234;19.292;2023-04-09T06:26:01;99234.30;;;8.09;75.64
69127;BME280;56688;50.234;19.292;2023-04-09T06:28:28;99237.46;;;8.22;75.74
69127;BME280;56688;50.234;19.292;2023-04-09T06:30:55;99240.28;;;8.33;75.48
69127;BME280;56688;50.234;19.292;2023-04-09T06:33:22;99237.81;;;8.45;75.56
69127;BME280;56688;50.234;19.292;2023-04-09T06:35:49;99241.47;;;8.59;75.39
69127;BME280;56688;50.234;19.292;2023-04-09T06:38:16;99242.28;;;8.74;74.99
69127;BME280;56688;50.234;19.292;2023-04-09T06:40:43;99243.39;;;8.89;74.06
69127;BME280;56688;50.234;19.292;2023-04-09T06:43:10;99242.63;;;9.03;72.74
69127;BME280;56688;50.234;19.292;2023-04-09T06:45:42;99244.58;;;9.16;71.70
69127;BME280;56688;50.234;19.292;2023-04-09T06:48:10;99251.02;;;9.28;71.00
69127;BME280;56688;50.234;19.292;2023-04-09T06:50:36;99257.10;;;9.31;70.17
69127;BME280;56688;50.234;19.292;2023-04-09T06:53:05;99252.41;;;9.36;70.15
69127;BME280;56688;50.234;19.292;2023-04-09T06:55:32;99254.48;;;9.42;70.00
69127;BME280;56688;50.234;19.292;2023-04-09T06:57:58;99251.94;;;9.46;69.69
69127;BME280;56688;50.234;19.292;2023-04-09T07:00:25;99258.17;;;9.47;69.64
69127;BME280;56688;50.234;19.292;2023-04-09T07:02:52;99256.30;;;9.48;69.54
69127;BME280;56688;50.234;19.292;2023-04-09T07:05:20;99256.41;;;9.47;69.90
69127;BME280;56688;50.234;19.292;2023-04-09T07:07:47;99258.61;;;9.50;70.08
69127;BME280;56688;50.234;19.292;2023-04-09T07:10:13;99261.19;;;9.51;69.72
69127;BME280;56688;50.234;19.292;2023-04-09T07:12:41;99263.43;;;9.52;69.38
69127;BME280;56688;50.234;19.292;2023-04-09T07:15:07;99263.30;;;9.53;69.56
69127;BME280;56688;50.234;19.292;2023-04-09T07:17:34;99263.66;;;9.56;69.47
69127;BME280;56688;50.234;19.292;2023-04-09T07:20:01;99267.14;;;9.59;69.22
69127;BME280;56688;50.234;19.292;2023-04-09T07:22:29;99267.92;;;9.61;69.24
69127;BME280;56688;50.234;19.292;2023-04-09T07:24:56;99271.45;;;9.62;69.33
69127;BME280;56688;50.234;19.292;2023-04-09T07:27:24;99265.33;;;9.54;69.43
69127;BME280;56688;50.234;19.292;2023-04-09T07:29:54;99270.34;;;9.45;69.23
69127;BME280;56688;50.234;19.292;2023-04-09T07:32:23;99270.77;;;9.39;69.66
69127;BME280;56688;50.234;19.292;2023-04-09T07:34:50;99270.16;;;9.32;69.97
69127;BME280;56688;50.234;19.292;2023-04-09T07:37:18;99269.42;;;9.24;70.09
69127;BME280;56688;50.234;19.292;2023-04-09T07:39:46;99267.59;;;9.22;70.51
69127;BME280;56688;50.234;19.292;2023-04-09T07:42:13;99267.00;;;9.18;70.56
69127;BME280;56688;50.234;19.292;2023-04-09T07:44:40;99262.60;;;9.24;71.13
69127;BME280;56688;50.234;19.292;2023-04-09T07:47:07;99269.41;;;9.37;71.60
69127;BME280;56688;50.234;19.292;2023-04-09T07:49:35;99266.73;;;9.56;71.33
69127;BME280;56688;50.234;19.292;2023-04-09T07:52:04;99268.85;;;9.73;71.01
69127;BME280;56688;50.234;19.292;2023-04-09T07:54:31;99266.91;;;9.81;70.38
69127;BME280;56688;50.234;19.292;2023-04-09T07:56:59;99268.16;;;9.89;69.99
69127;BME280;56688;50.234;19.292;2023-04-09T07:59:27;99267.53;;;9.95;69.50
69127;BME280;56688;50.234;19.292;2023-04-09T08:01:55;99267.84;;;10.00;69.43
69127;BME280;56688;50.234;19.292;2023-04-09T08:04:22;99265.08;;;10.11;69.56
69127;BME280;56688;50.234;19.292;2023-04-09T08:06:49;99263.40;;;10.23;69.42
69127;BME280;56688;50.234;19.292;2023-04-09T08:09:17;99267.61;;;10.27;68.78
69127;BME280;56688;50.234;19.292;2023-04-09T08:11:44;99269.31;;;10.29;68.91
69127;BME280;56688;50.234;19.292;2023-04-09T08:14:13;99267.85;;;10.36;68.61
69127;BME280;56688;50.234;19.292;2023-04-09T08:16:44;99271.98;;;10.39;68.27
69127;BME280;56688;50.234;19.292;2023-04-09T08:19:12;99277.23;;;10.41;68.26
69127;BME280;56688;50.234;19.292;2023-04-09T08:21:40;99272.05;;;10.43;68.40
69127;BME280;56688;50.234;19.292;2023-04-09T08:24:09;99279.25;;;10.47;68.37
69127;BME280;56688;50.234;19.292;2023-04-09T08:26:38;99278.68;;;10.52;68.43
69127;BME280;56688;50.234;19.292;2023-04-09T08:29:05;99279.27;;;10.55;67.97
69127;BME280;56688;50.234;19.292;2023-04-09T08:31:33;99286.02;;;10.60;67.74
69127;BME280;56688;50.234;19.292;2023-04-09T08:34:00;99281.73;;;10.65;67.33
69127;BME280;56688;50.234;19.292;2023-04-09T08:36:27;99288.52;;;10.71;67.37
69127;BME280;56688;50.234;19.292;2023-04-09T08:38:54;99283.71;;;10.78;67.12
69127;BME280;56688;50.234;19.292;2023-04-09T08:41:24;99282.41;;;10.83;67.56
69127;BME280;56688;50.234;19.292;2023-04-09T08:43:51;99284.33;;;10.89;67.66
69127;BME280;56688;50.234;19.292;2023-04-09T08:46:24;99280.71;;;10.91;67.40
69127;BME280;56688;50.234;19.292;2023-04-09T08:48:52;99283.48;;;10.93;67.51
69127;BME280;56688;50.234;19.292;2023-04-09T08:51:21;99287.23;;;10.96;67.41
69127;BME280;56688;50.234;19.292;2023-04-09T08:53:55;99279.33;;;10.97;66.81
69127;BME280;56688;50.234;19.292;2023-04-09T08:56:23;99278.99;;;10.98;67.12
69127;BME280;56688;50.234;19.292;2023-04-09T08:58:50;99278.25;;;10.98;66.83
69127;BME280;56688;50.234;19.292;2023-04-09T09:01:20;99279.26;;;10.97;67.34
69127;BME280;56688;50.234;19.292;2023-04-09T09:06:21;99278.44;;;10.82;67.72
69127;BME280;56688;50.234;19.292;2023-04-09T09:11:35;99285.29;;;10.89;68.53
69127;BME280;56688;50.234;19.292;2023-04-09T09:14:05;99284.63;;;11.00;68.76
69127;BME280;56688;50.234;19.292;2023-04-09T09:16:37;99290.08;;;11.12;68.56
69127;BME280;56688;50.234;19.292;2023-04-09T09:19:05;99287.60;;;11.29;68.49
69127;BME280;56688;50.234;19.292;2023-04-09T09:21:32;99288.86;;;11.46;67.85
69127;BME280;56688;50.234;19.292;2023-04-09T09:24:00;99287.65;;;11.60;67.20
69127;BME280;56688;50.234;19.292;2023-04-09T09:26:29;99283.75;;;11.70;66.20
69127;BME280;56688;50.234;19.292;2023-04-09T09:28:56;99286.22;;;11.77;65.97
69127;BME280;56688;50.234;19.292;2023-04-09T09:31:25;99287.56;;;11.81;65.48
69127;BME280;56688;50.234;19.292;2023-04-09T09:33:52;99291.22;;;11.82;65.88
69127;BME280;56688;50.234;19.292;2023-04-09T09:36:35;99292.29;;;11.82;65.88
69127;BME280;56688;50.234;19.292;2023-04-09T09:39:02;99293.27;;;11.84;65.83
69127;BME280;56688;50.234;19.292;2023-04-09T09:41:30;99294.48;;;11.86;65.16
69127;BME280;56688;50.234;19.292;2023-04-09T09:43:57;99291.84;;;11.87;65.18
69127;BME280;56688;50.234;19.292;2023-04-09T09:46:24;99296.12;;;11.93;64.99
69127;BME280;56688;50.234;19.292;2023-04-09T09:48:52;99296.91;;;12.01;64.63
69127;BME280;56688;50.234;19.292;2023-04-09T09:51:23;99295.98;;;12.02;64.09
69127;BME280;56688;50.234;19.292;2023-04-09T09:53:55;99293.92;;;12.06;64.91
69127;BME280;56688;50.234;19.292;2023-04-09T09:56:29;99291.80;;;12.16;64.64
69127;BME280;56688;50.234;19.292;2023-04-09T09:59:05;99287.52;;;12.27;64.63
69127;BME280;56688;50.234;19.292;2023-04-09T10:01:33;99281.83;;;12.37;64.41
69127;BME280;56688;50.234;19.292;2023-04-09T10:04:04;99282.56;;;12.52;63.83
69127;BME280;56688;50.234;19.292;2023-04-09T10:06:32;99282.23;;;12.67;63.50
69127;BME280;56688;50.234;19.292;2023-04-09T10:09:03;99285.70;;;12.81;63.03
69127;BME280;56688;50.234;19.292;2023-04-09T10:11:32;99277.36;;;12.90;62.05
69127;BME280;56688;50.234;19.292;2023-04-09T10:14:01;99275.41;;;12.97;61.29
69127;BME280;56688;50.234;19.292;2023-04-09T10:16:28;99276.06;;;13.05;61.40
69127;BME280;56688;50.234;19.292;2023-04-09T10:18:57;99274.73;;;13.09;61.02
69127;BME280;56688;50.234;19.292;2023-04-09T10:23:56;99272.85;;;13.20;60.68
69127;BME280;56688;50.234;19.292;2023-04-09T10:26:25;99268.86;;;13.39;60.33
69127;BME280;56688;50.234;19.292;2023-04-09T10:34:19;99259.70;;;14.22;57.16
69127;BME280;56688;50.234;19.292;2023-04-09T10:36:52;99258.11;;;14.51;57.41
69127;BME280;56688;50.234;19.292;2023-04-09T10:39:25;99256.10;;;14.93;56.94
69127;BME280;56688;50.234;19.292;2023-04-09T10:41:55;99249.02;;;15.45;55.88
69127;BME280;56688;50.234;19.292;2023-04-09T10:44:24;99246.90;;;15.90;54.20
69127;BME280;56688;50.234;19.292;2023-04-09T10:46:53;99247.75;;;16.36;52.46
69127;BME280;56688;50.234;19.292;2023-04-09T10:49:22;99246.45;;;16.69;50.84
69127;BME280;56688;50.234;19.292;2023-04-09T10:51:51;99242.35;;;16.96;51.13
69127;BME280;56688;50.234;19.292;2023-04-09T10:59:35;99238.92;;;17.68;46.84
69127;BME280;56688;50.234;19.292;2023-04-09T11:02:06;99237.33;;;17.96;45.86
69127;BME280;56688;50.234;19.292;2023-04-09T11:05:06;99232.73;;;18.20;45.69
69127;BME280;56688;50.234;19.292;2023-04-09T11:07:40;99228.06;;;18.49;44.89
69127;BME280;56688;50.234;19.292;2023-04-09T11:10:09;99230.20;;;18.62;44.67
69127;BME280;56688;50.234;19.292;2023-04-09T11:12:37;99229.20;;;18.73;45.00
69127;BME280;56688;50.234;19.292;2023-04-09T11:15:04;99227.45;;;18.82;43.76
69127;BME280;56688;50.234;19.292;2023-04-09T11:17:34;99229.18;;;18.87;43.39
69127;BME280;56688;50.234;19.292;2023-04-09T11:20:02;99223.83;;;18.86;42.72
69127;BME280;56688;50.234;19.292;2023-04-09T11:22:29;99226.30;;;18.87;42.00
69127;BME280;56688;50.234;19.292;2023-04-09T11:24:56;99225.45;;;18.77;42.33
69127;BME280;56688;50.234;19.292;2023-04-09T11:27:23;99223.66;;;18.56;42.74
69127;BME280;56688;50.234;19.292;2023-04-09T11:29:54;99225.29;;;18.42;43.93
69127;BME280;56688;50.234;19.292;2023-04-09T11:32:21;99227.34;;;18.26;43.70
69127;BME280;56688;50.234;19.292;2023-04-09T11:34:51;99227.55;;;18.09;44.15
69127;BME280;56688;50.234;19.292;2023-04-09T11:37:18;99227.61;;;17.94;43.92
69127;BME280;56688;50.234;19.292;2023-04-09T11:39:45;99228.67;;;17.84;44.59
69127;BME280;56688;50.234;19.292;2023-04-09T11:42:15;99225.60;;;17.75;44.78
69127;BME280;56688;50.234;19.292;2023-04-09T11:44:45;99226.84;;;17.57;45.40
69127;BME280;56688;50.234;19.292;2023-04-09T11:47:13;99228.16;;;17.40;46.02
69127;BME280;56688;50.234;19.292;2023-04-09T11:49:40;99230.88;;;17.12;46.43
69127;BME280;56688;50.234;19.292;2023-04-09T11:52:07;99225.17;;;16.90;46.53
69127;BME280;56688;50.234;19.292;2023-04-09T11:54:35;99228.94;;;16.69;47.24
69127;BME280;56688;50.234;19.292;2023-04-09T11:57:03;99229.35;;;16.54;46.41
69127;BME280;56688;50.234;19.292;2023-04-09T11:59:32;99226.86;;;16.37;45.96
69127;BME280;56688;50.234;19.292;2023-04-09T12:01:59;99226.63;;;16.22;46.73
69127;BME280;56688;50.234;19.292;2023-04-09T12:04:27;99227.90;;;16.08;47.32
69127;BME280;56688;50.234;19.292;2023-04-09T12:06:57;99232.20;;;15.96;47.74
69127;BME280;56688;50.234;19.292;2023-04-09T12:09:24;99230.65;;;15.89;47.35
69127;BME280;56688;50.234;19.292;2023-04-09T12:14:33;99235.56;;;15.74;48.39
69127;BME280;56688;50.234;19.292;2023-04-09T12:17:00;99234.52;;;15.65;47.98
69127;BME280;56688;50.234;19.292;2023-04-09T12:19:27;99238.94;;;15.52;48.35
69127;BME280;56688;50.234;19.292;2023-04-09T12:21:54;99240.86;;;15.35;48.37
69127;BME280;56688;50.234;19.292;2023-04-09T12:24:24;99239.83;;;15.17;48.26
69127;BME280;56688;50.234;19.292;2023-04-09T12:27:00;99235.64;;;15.01;48.09
69127;BME280;56688;50.234;19.292;2023-04-09T12:29:27;99237.25;;;14.84;49.11
69127;BME280;56688;50.234;19.292;2023-04-09T12:32:00;99234.42;;;14.64;50.22
69127;BME280;56688;50.234;19.292;2023-04-09T12:34:27;99234.23;;;14.44;49.36
69127;BME280;56688;50.234;19.292;2023-04-09T12:36:54;99236.77;;;14.15;49.80
69127;BME280;56688;50.234;19.292;2023-04-09T12:39:21;99241.95;;;13.82;50.37
69127;BME280;56688;50.234;19.292;2023-04-09T12:41:47;99239.48;;;13.35;50.46
69127;BME280;56688;50.234;19.292;2023-04-09T12:44:14;99238.52;;;12.95;51.21
69127;BME280;56688;50.234;19.292;2023-04-09T12:46:41;99237.66;;;12.63;52.89
69127;BME280;56688;50.234;19.292;2023-04-09T12:49:08;99236.36;;;12.43;54.14
69127;BME280;56688;50.234;19.292;2023-04-09T12:51:35;99237.27;;;12.31;55.69
69127;BME280;56688;50.234;19.292;2023-04-09T12:54:02;99231.96;;;12.21;56.76
69127;BME280;56688;50.234;19.292;2023-04-09T12:56:29;99226.95;;;12.09;56.15
69127;BME280;56688;50.234;19.292;2023-04-09T12:58:56;99226.41;;;11.99;56.85
69127;BME280;56688;50.234;19.292;2023-04-09T13:01:23;99228.25;;;12.00;59.77
69127;BME280;56688;50.234;19.292;2023-04-09T13:03:50;99225.31;;;12.03;62.21
69127;BME280;56688;50.234;19.292;2023-04-09T13:06:17;99222.48;;;12.09;63.96
69127;BME280;56688;50.234;19.292;2023-04-09T13:08:44;99228.02;;;12.24;66.22
69127;BME280;56688;50.234;19.292;2023-04-09T13:11:11;99230.96;;;12.43;66.16
69127;BME280;56688;50.234;19.292;2023-04-09T13:13:38;99233.11;;;12.68;65.02
69127;BME280;56688;50.234;19.292;2023-04-09T13:16:08;99231.38;;;13.21;64.63
69127;BME280;56688;50.234;19.292;2023-04-09T13:18:34;99228.14;;;13.72;61.58
69127;BME280;56688;50.234;19.292;2023-04-09T13:21:01;99222.42;;;14.43;59.18
69127;BME280;56688;50.234;19.292;2023-04-09T13:23:28;99218.00;;;15.25;56.39
69127;BME280;56688;50.234;19.292;2023-04-09T13:25:55;99210.80;;;16.19;52.80
69127;BME280;56688;50.234;19.292;2023-04-09T13:28:22;99211.08;;;16.93;50.45
69127;BME280;56688;50.234;19.292;2023-04-09T13:30:49;99207.68;;;17.56;48.19